createdAt,value
2019-06-07T00:00:43.215Z,99.99
2019-06-07T00:01:43.131Z,99.99
2019-06-07T00:02:43.144Z,99.99
2019-06-07T00:03:43.089Z,99.99
2019-06-07T00:04:43.061Z,99.99
2019-06-07T00:05:43.049Z,99.99
2019-06-07T00:06:43.025Z,99.99
2019-06-07T00:07:43.004Z,99.99
2019-06-07T00:08:42.978Z,99.99
2019-06-07T00:09:42.961Z,99.99
2019-06-07T00:10:42.935Z,99.99
2019-06-07T00:11:42.919Z,99.99
2019-06-07T00:12:42.931Z,99.99
2019-06-07T00:13:42.877Z,99.99
2019-06-07T00:14:42.855Z,99.99
2019-06-07T00:15:42.826Z,99.99
2019-06-07T00:16:42.808Z,99.99
2019-06-07T00:17:42.792Z,99.99
2019-06-07T00:18:42.768Z,99.99
2019-06-07T00:19:42.765Z,99.99
2019-06-07T00:20:42.725Z,99.99
2019-06-07T00:22:13.783Z,99.99
2019-06-07T00:22:42.683Z,99.99
2019-06-07T00:23:42.661Z,99.99
2019-06-07T00:24:42.638Z,99.99
2019-06-07T00:25:42.624Z,99.99
2019-06-07T00:26:57.867Z,99.99
2019-06-07T00:27:42.574Z,99.99
2019-06-07T00:28:42.565Z,99.99
2019-06-07T00:29:42.538Z,99.99
2019-06-07T00:30:51.728Z,99.99
2019-06-07T00:31:42.484Z,99.99
2019-06-07T00:32:42.489Z,99.99
2019-06-07T00:33:42.452Z,99.99
2019-06-07T00:34:42.430Z,99.99
2019-06-07T00:35:42.404Z,99.99
2019-06-07T00:36:42.382Z,99.99
2019-06-07T00:37:42.363Z,99.99
2019-06-07T00:38:42.337Z,99.99
2019-06-07T00:39:42.317Z,99.99
2019-06-07T00:40:42.295Z,99.99
2019-06-07T00:41:42.272Z,99.99
2019-06-07T00:42:42.258Z,99.99
2019-06-07T00:43:42.227Z,99.99
2019-06-07T00:44:42.215Z,99.99
2019-06-07T00:45:42.195Z,99.99
2019-06-07T00:46:42.175Z,99.99
2019-06-07T00:47:42.143Z,99.99
2019-06-07T00:48:42.125Z,99.99
2019-06-07T00:49:42.121Z,99.99
2019-06-07T00:50:42.079Z,99.99
2019-06-07T00:51:50.380Z,99.99
2019-06-07T00:53:14.125Z,99.99
2019-06-07T00:53:42.019Z,99.99
2019-06-07T00:54:42.009Z,99.99
2019-06-07T00:55:41.980Z,99.99
2019-06-07T00:56:41.952Z,99.99
2019-06-07T00:57:41.939Z,99.99
2019-06-07T00:58:41.913Z,99.99
2019-06-07T00:59:41.955Z,99.99
2019-06-07T01:00:41.871Z,99.99
2019-06-07T01:01:41.846Z,99.99
2019-06-07T01:02:41.827Z,99.99
2019-06-07T01:03:41.805Z,99.99
2019-06-07T01:04:41.792Z,99.99
2019-06-07T01:05:41.773Z,99.99
2019-06-07T01:06:41.740Z,99.99
2019-06-07T01:07:41.755Z,99.99
2019-06-07T01:08:41.700Z,99.99
2019-06-07T01:09:41.679Z,99.99
2019-06-07T01:10:53.033Z,99.99
2019-06-07T01:11:41.640Z,99.99
2019-06-07T01:12:41.612Z,99.99
2019-06-07T01:13:41.592Z,99.99
2019-06-07T01:14:41.573Z,99.99
2019-06-07T01:15:41.551Z,99.99
2019-06-07T01:16:56.734Z,99.99
2019-06-07T01:18:11.961Z,99.99
2019-06-07T01:18:46.536Z,99.99
2019-06-07T01:19:41.466Z,99.99
2019-06-07T01:20:41.446Z,99.99
2019-06-07T01:21:41.441Z,99.99
2019-06-07T01:22:41.408Z,99.99
2019-06-07T01:24:07.958Z,99.99
2019-06-07T01:24:41.360Z,99.99
2019-06-07T01:25:41.397Z,99.99
2019-06-07T01:26:41.320Z,99.99
2019-06-07T01:27:41.297Z,99.99
2019-06-07T01:28:41.287Z,99.99
2019-06-07T01:29:41.271Z,99.99
2019-06-07T01:30:41.244Z,99.99
2019-06-07T01:31:41.220Z,99.99
2019-06-07T01:32:41.191Z,99.99
2019-06-07T01:33:50.898Z,99.99
2019-06-07T01:34:41.153Z,99.99
2019-06-07T01:35:41.134Z,99.99
2019-06-07T01:36:41.102Z,99.99
2019-06-07T01:37:41.087Z,99.99
2019-06-07T01:38:41.064Z,99.99
2019-06-07T01:39:41.067Z,99.99
2019-06-07T01:40:41.029Z,99.99
2019-06-07T01:41:41.000Z,99.99
2019-06-07T01:42:40.980Z,99.99
2019-06-07T01:43:40.962Z,99.99
2019-06-07T01:44:40.936Z,99.99
2019-06-07T01:45:40.918Z,99.99
2019-06-07T01:46:40.905Z,99.99
2019-06-07T01:47:40.879Z,99.99
2019-06-07T01:48:49.633Z,99.99
2019-06-07T01:49:40.870Z,99.99
2019-06-07T01:50:40.818Z,99.99
2019-06-07T01:51:40.823Z,99.99
2019-06-07T01:52:40.774Z,99.99
2019-06-07T01:53:40.748Z,99.99
2019-06-07T01:54:56.740Z,99.99
2019-06-07T01:55:40.710Z,99.99
2019-06-07T01:56:40.688Z,99.99
2019-06-07T01:57:48.105Z,99.99
2019-06-07T01:58:40.643Z,99.99
2019-06-07T01:59:40.621Z,99.99
2019-06-07T02:00:40.607Z,99.99
2019-06-07T02:01:40.583Z,99.99
2019-06-07T02:02:40.561Z,99.99
2019-06-07T02:03:40.541Z,99.99
2019-06-07T02:04:40.523Z,99.99
2019-06-07T02:05:40.495Z,99.99
2019-06-07T02:06:40.479Z,99.99
2019-06-07T02:07:40.453Z,99.99
2019-06-07T02:08:40.432Z,99.99
2019-06-07T02:09:40.415Z,99.99
2019-06-07T02:10:40.393Z,99.99
2019-06-07T02:11:40.370Z,99.99
2019-06-07T02:12:43.460Z,99.99
2019-06-07T02:13:40.330Z,99.99
2019-06-07T02:14:40.305Z,99.99
2019-06-07T02:15:40.289Z,99.99
2019-06-07T02:16:40.261Z,99.99
2019-06-07T02:17:40.246Z,99.99
2019-06-07T02:19:00.602Z,99.99
2019-06-07T02:19:40.199Z,99.99
2019-06-07T02:20:40.177Z,99.99
2019-06-07T02:21:40.154Z,99.99
2019-06-07T02:22:40.141Z,99.99
2019-06-07T02:23:40.112Z,99.99
2019-06-07T02:24:40.089Z,99.99
2019-06-07T02:25:48.707Z,99.99
2019-06-07T02:26:40.051Z,99.99
2019-06-07T02:27:40.031Z,99.99
2019-06-07T02:28:45.666Z,99.99
2019-06-07T02:29:39.990Z,99.99
2019-06-07T02:30:53.248Z,99.99
2019-06-07T02:31:40.123Z,99.99
2019-06-07T02:32:39.973Z,99.99
2019-06-07T02:33:40.537Z,99.99
2019-06-07T02:34:40.112Z,99.99
2019-06-07T02:35:41.122Z,99.99
2019-06-07T02:36:41.775Z,99.99
2019-06-07T02:37:39.820Z,99.99
2019-06-07T02:38:39.810Z,99.99
2019-06-07T02:39:41.071Z,99.99
2019-06-07T02:40:39.755Z,99.99
2019-06-07T02:41:40.548Z,99.99
2019-06-07T02:42:42.738Z,99.99
2019-06-07T02:43:39.689Z,99.99
2019-06-07T02:44:40.464Z,99.99
2019-06-07T02:45:43.511Z,99.99
2019-06-07T02:46:46.824Z,99.99
2019-06-07T02:47:39.638Z,99.99
2019-06-07T02:48:40.456Z,99.99
2019-06-07T02:49:41.676Z,99.99
2019-06-07T02:50:39.543Z,99.99
2019-06-07T02:51:41.572Z,99.99
2019-06-07T02:52:40.876Z,99.99
2019-06-07T02:53:40.444Z,99.99
2019-06-07T02:54:40.684Z,99.99
2019-06-07T02:56:33.206Z,99.99
2019-06-07T02:56:56.222Z,99.99
2019-06-07T02:57:41.625Z,99.99
2019-06-07T02:58:41.976Z,99.99
2019-06-07T03:00:02.962Z,99.99
2019-06-07T03:00:55.391Z,99.99
2019-06-07T03:01:42.242Z,99.99
2019-06-07T03:02:41.390Z,99.99
2019-06-07T03:03:40.169Z,99.99
2019-06-07T03:04:43.769Z,99.99
2019-06-07T03:05:41.000Z,99.99
2019-06-07T03:06:43.462Z,99.99
2019-06-07T03:07:44.570Z,99.99
2019-06-07T03:08:39.153Z,99.99
2019-06-07T03:09:40.005Z,99.99
2019-06-07T03:10:41.748Z,99.99
2019-06-07T03:11:39.090Z,99.99
2019-06-07T03:12:39.311Z,99.99
2019-06-07T03:13:41.201Z,99.99
2019-06-07T03:14:39.473Z,99.99
2019-06-07T03:15:45.774Z,99.99
2019-06-07T03:16:39.221Z,99.99
2019-06-07T03:17:40.830Z,99.99
2019-06-07T03:18:41.546Z,99.99
2019-06-07T03:19:39.571Z,99.99
2019-06-07T03:20:39.841Z,99.99
2019-06-07T03:21:41.677Z,99.99
2019-06-07T03:22:41.132Z,99.99
2019-06-07T03:23:39.193Z,99.99
2019-06-07T03:24:42.106Z,99.99
2019-06-07T03:25:39.339Z,99.99
2019-06-07T03:27:30.458Z,99.99
2019-06-07T03:27:48.295Z,99.99
2019-06-07T03:28:39.562Z,99.99
2019-06-07T03:29:41.152Z,99.99
2019-06-07T03:30:54.559Z,99.99
2019-06-07T03:31:45.953Z,99.99
2019-06-07T03:32:46.312Z,99.99
2019-06-07T03:33:42.693Z,99.99
2019-06-07T03:34:42.867Z,99.99
2019-06-07T03:35:40.670Z,99.99
2019-06-07T03:36:40.070Z,99.99
2019-06-07T03:37:42.620Z,99.99
2019-06-07T03:38:39.930Z,99.99
2019-06-07T03:39:40.934Z,99.99
2019-06-07T03:40:40.145Z,99.99
2019-06-07T03:41:50.231Z,99.99
2019-06-07T03:42:40.018Z,99.99
2019-06-07T03:43:40.593Z,99.99
2019-06-07T03:44:41.255Z,99.99
2019-06-07T03:45:41.370Z,99.99
2019-06-07T03:46:41.463Z,99.99
2019-06-07T03:47:41.994Z,99.99
2019-06-07T03:48:41.004Z,99.99
2019-06-07T03:49:42.114Z,99.99
2019-06-07T03:50:41.853Z,99.99
2019-06-07T03:51:40.560Z,99.99
2019-06-07T03:52:40.946Z,99.99
2019-06-07T03:53:40.723Z,99.99
2019-06-07T03:54:39.876Z,99.99
2019-06-07T03:55:41.183Z,99.99
2019-06-07T03:56:40.861Z,99.99
2019-06-07T03:58:29.517Z,99.99
2019-06-07T03:58:49.234Z,99.99
2019-06-07T03:59:41.288Z,99.99
2019-06-07T04:00:42.598Z,99.99
2019-06-07T04:01:41.061Z,99.99
2019-06-07T04:02:41.708Z,99.99
2019-06-07T04:03:46.306Z,99.99
2019-06-07T04:04:39.756Z,99.99
2019-06-07T04:05:41.235Z,99.99
2019-06-07T04:06:41.937Z,99.99
2019-06-07T04:07:43.781Z,99.99
2019-06-07T04:08:41.313Z,99.99
2019-06-07T04:09:42.486Z,99.99
2019-06-07T04:10:55.650Z,99.99
2019-06-07T04:11:39.439Z,99.99
2019-06-07T04:12:40.045Z,99.99
2019-06-07T04:13:42.562Z,99.99
2019-06-07T04:14:40.449Z,99.99
2019-06-07T04:15:39.600Z,99.99
2019-06-07T04:16:43.585Z,99.99
2019-06-07T04:17:44.547Z,99.99
2019-06-07T04:18:40.867Z,99.99
2019-06-07T04:19:42.516Z,99.99
2019-06-07T04:20:40.703Z,99.99
2019-06-07T04:21:42.138Z,99.99
2019-06-07T04:22:42.025Z,99.99
2019-06-07T04:23:44.725Z,99.99
2019-06-07T04:24:40.205Z,99.99
2019-06-07T04:25:41.831Z,99.99
2019-06-07T04:26:42.689Z,99.99
2019-06-07T04:27:39.255Z,99.99
2019-06-07T04:30:02.949Z,99.99
2019-06-07T04:30:39.555Z,99.99
2019-06-07T04:31:41.944Z,99.99
2019-06-07T04:32:40.642Z,99.99
2019-06-07T04:33:41.550Z,99.99
2019-06-07T04:34:42.030Z,99.99
2019-06-07T04:35:39.994Z,99.99
2019-06-07T04:36:47.438Z,99.99
2019-06-07T04:37:40.661Z,99.99
2019-06-07T04:38:40.563Z,99.99
2019-06-07T04:39:41.661Z,99.99
2019-06-07T04:40:39.989Z,99.99
2019-06-07T04:41:38.514Z,99.99
2019-06-07T04:42:41.846Z,99.99
2019-06-07T04:43:38.727Z,99.99
2019-06-07T04:44:40.655Z,99.99
2019-06-07T04:45:46.638Z,99.99
2019-06-07T04:46:40.799Z,99.99
2019-06-07T04:47:38.886Z,99.99
2019-06-07T04:48:41.173Z,99.99
2019-06-07T04:49:40.627Z,99.99
2019-06-07T04:50:39.986Z,99.99
2019-06-07T04:51:40.602Z,99.99
2019-06-07T04:52:42.783Z,99.99
2019-06-07T04:53:38.659Z,99.99
2019-06-07T04:54:38.554Z,99.99
2019-06-07T04:55:39.870Z,99.99
2019-06-07T04:56:40.909Z,99.99
2019-06-07T04:57:37.683Z,99.99
2019-06-07T04:58:38.298Z,99.99
2019-06-07T05:00:59.266Z,99.99
2019-06-07T05:01:39.535Z,99.99
2019-06-07T05:02:38.634Z,99.99
2019-06-07T05:03:39.401Z,99.99
2019-06-07T05:04:39.046Z,99.99
2019-06-07T05:05:39.803Z,99.99
2019-06-07T05:06:39.611Z,99.99
2019-06-07T05:07:37.831Z,99.99
2019-06-07T05:08:38.767Z,99.99
2019-06-07T05:09:39.414Z,99.99
2019-06-07T05:10:38.730Z,99.99
2019-06-07T05:11:39.416Z,99.99
2019-06-07T05:12:41.125Z,99.99
2019-06-07T05:13:38.943Z,99.99
2019-06-07T05:14:37.293Z,99.99
2019-06-07T05:15:39.003Z,99.99
2019-06-07T05:16:40.257Z,99.99
2019-06-07T05:17:37.096Z,99.99
2019-06-07T05:18:40.210Z,99.99
2019-06-07T05:19:39.141Z,99.99
2019-06-07T05:20:38.541Z,99.99
2019-06-07T05:21:54.219Z,99.99
2019-06-07T05:22:41.971Z,99.99
2019-06-07T05:24:06.550Z,99.99
2019-06-07T05:24:38.376Z,99.99
2019-06-07T05:25:38.442Z,99.99
2019-06-07T05:26:40.187Z,99.99
2019-06-07T05:27:38.673Z,99.99
2019-06-07T05:28:39.728Z,99.99
2019-06-07T05:29:37.240Z,99.99
2019-06-07T05:31:02.138Z,99.99
2019-06-07T05:31:39.599Z,99.99
2019-06-07T05:32:37.521Z,99.99
2019-06-07T05:33:38.098Z,99.99
2019-06-07T05:34:36.935Z,99.99
2019-06-07T05:35:39.748Z,99.99
2019-06-07T05:36:39.187Z,99.99
2019-06-07T05:37:38.033Z,99.99
2019-06-07T05:38:40.377Z,99.99
2019-06-07T05:39:38.383Z,99.99
2019-06-07T05:40:37.272Z,99.99
2019-06-07T05:41:37.131Z,99.99
2019-06-07T05:42:39.159Z,99.99
2019-06-07T05:43:39.281Z,99.99
2019-06-07T05:44:36.522Z,99.99
2019-06-07T05:45:39.263Z,99.99
2019-06-07T05:46:38.640Z,99.99
2019-06-07T05:47:40.344Z,99.99
2019-06-07T05:48:36.642Z,99.99
2019-06-07T05:49:39.561Z,99.99
2019-06-07T05:50:44.943Z,99.99
2019-06-07T05:51:38.055Z,99.99
2019-06-07T05:52:38.526Z,99.99
2019-06-07T05:53:38.962Z,99.99
2019-06-07T05:54:36.489Z,99.99
2019-06-07T05:55:37.681Z,99.99
2019-06-07T05:56:36.531Z,99.99
2019-06-07T05:57:38.077Z,99.99
2019-06-07T05:58:37.637Z,99.99
2019-06-07T05:59:38.254Z,99.99
2019-06-07T06:00:36.865Z,99.99
2019-06-07T06:01:45.022Z,99.99
2019-06-07T06:02:57.640Z,99.99
2019-06-07T06:03:36.601Z,99.99
2019-06-07T06:04:36.026Z,99.99
2019-06-07T06:05:41.644Z,99.99
2019-06-07T06:06:36.378Z,99.99
2019-06-07T06:07:38.740Z,99.99
2019-06-07T06:08:36.608Z,99.99
2019-06-07T06:09:36.450Z,99.99
2019-06-07T06:10:37.010Z,99.99
2019-06-07T06:11:49.276Z,99.99
2019-06-07T06:12:39.085Z,99.99
2019-06-07T06:13:36.848Z,99.99
2019-06-07T06:14:39.606Z,99.99
2019-06-07T06:15:46.328Z,99.99
2019-06-07T06:16:37.053Z,99.99
2019-06-07T06:17:37.812Z,99.99
2019-06-07T06:18:35.647Z,99.99
2019-06-07T06:19:36.807Z,99.99
2019-06-07T06:21:00.895Z,99.99
2019-06-07T06:21:36.175Z,99.99
2019-06-07T06:22:37.118Z,99.99
2019-06-07T06:23:39.002Z,99.99
2019-06-07T06:24:37.095Z,99.99
2019-06-07T06:25:37.210Z,99.99
2019-06-07T06:26:38.444Z,99.99
2019-06-07T06:28:07.778Z,99.99
2019-06-07T06:28:36.862Z,99.99
2019-06-07T06:29:38.035Z,99.99
2019-06-07T06:30:35.936Z,99.99
2019-06-07T06:31:35.170Z,99.99
2019-06-07T06:32:51.096Z,99.99
2019-06-07T06:33:35.149Z,99.99
2019-06-07T06:34:35.025Z,99.99
2019-06-07T06:35:35.001Z,99.99
2019-06-07T06:36:34.984Z,99.99
2019-06-07T06:37:34.968Z,99.99
2019-06-07T06:38:34.951Z,99.99
2019-06-07T06:39:34.939Z,99.99
2019-06-07T06:40:34.924Z,99.99
2019-06-07T06:41:46.168Z,99.99
2019-06-07T06:42:34.888Z,99.99
2019-06-07T06:43:34.862Z,99.99
2019-06-07T06:44:34.858Z,99.99
2019-06-07T06:45:34.834Z,99.99
2019-06-07T06:46:41.055Z,99.99
2019-06-07T06:47:34.798Z,99.99
2019-06-07T06:48:34.785Z,99.99
2019-06-07T06:49:34.769Z,99.99
2019-06-07T06:50:34.754Z,99.99
2019-06-07T06:51:34.734Z,99.99
2019-06-07T06:52:34.715Z,99.99
2019-06-07T06:53:34.702Z,99.99
2019-06-07T06:54:41.041Z,99.99
2019-06-07T06:55:34.696Z,99.99
2019-06-07T06:56:34.664Z,99.99
2019-06-07T06:57:34.645Z,99.99
2019-06-07T06:59:18.789Z,99.99
2019-06-07T06:59:39.149Z,99.99
2019-06-07T07:00:46.333Z,99.99
2019-06-07T07:01:34.581Z,99.99
2019-06-07T07:02:34.563Z,99.99
2019-06-07T07:03:57.240Z,99.99
2019-06-07T07:04:34.526Z,99.99
2019-06-07T07:05:34.516Z,99.99
2019-06-07T07:06:34.496Z,99.99
2019-06-07T07:07:34.484Z,99.99
2019-06-07T07:08:34.462Z,99.99
2019-06-07T07:09:34.452Z,99.99
2019-06-07T07:10:34.430Z,99.99
2019-06-07T07:11:51.879Z,99.99
2019-06-07T07:12:34.404Z,99.99
2019-06-07T07:13:34.389Z,99.99
2019-06-07T07:14:34.372Z,99.99
2019-06-07T07:15:34.384Z,99.99
2019-06-07T07:16:34.339Z,99.99
2019-06-07T07:17:50.799Z,99.99
2019-06-07T07:18:34.304Z,99.99
2019-06-07T07:19:34.383Z,99.99
2019-06-07T07:20:34.278Z,99.99
2019-06-07T07:21:34.263Z,99.99
2019-06-07T07:22:34.250Z,99.99
2019-06-07T07:23:34.235Z,99.99
2019-06-07T07:24:34.217Z,99.99
2019-06-07T07:25:34.203Z,99.99
2019-06-07T07:26:34.182Z,99.99
2019-06-07T07:27:34.166Z,99.99
2019-06-07T07:28:34.168Z,99.99
2019-06-07T07:29:34.141Z,99.99
2019-06-07T07:30:37.116Z,99.99
2019-06-07T07:31:34.106Z,99.99
2019-06-07T07:32:34.110Z,99.99
2019-06-07T07:34:21.002Z,99.99
2019-06-07T07:34:36.876Z,99.99
2019-06-07T07:35:34.059Z,99.99
2019-06-07T07:36:39.419Z,99.99
2019-06-07T07:37:34.018Z,99.99
2019-06-07T07:38:34.002Z,99.99
2019-06-07T07:39:33.991Z,99.99
2019-06-07T07:40:57.022Z,99.99
2019-06-07T07:41:33.962Z,99.99
2019-06-07T07:42:33.943Z,99.99
2019-06-07T07:43:33.933Z,99.99
2019-06-07T07:44:33.912Z,99.99
2019-06-07T07:45:33.898Z,99.99
2019-06-07T07:46:33.888Z,99.99
2019-06-07T07:47:34.030Z,99.99
2019-06-07T07:48:33.854Z,99.99
2019-06-07T07:49:33.838Z,99.99
2019-06-07T07:50:33.860Z,99.99
2019-06-07T07:51:33.809Z,99.99
2019-06-07T07:52:33.809Z,99.99
2019-06-07T07:53:48.318Z,99.99
2019-06-07T07:54:33.767Z,99.99
2019-06-07T07:55:33.748Z,99.99
2019-06-07T07:56:33.742Z,99.99
2019-06-07T07:57:33.721Z,99.99
2019-06-07T07:58:33.708Z,99.99
2019-06-07T07:59:43.975Z,99.99
2019-06-07T08:00:52.891Z,99.99
2019-06-07T08:01:33.662Z,99.99
2019-06-07T08:02:33.703Z,99.99
2019-06-07T08:03:33.637Z,99.99
2019-06-07T08:05:12.878Z,99.99
2019-06-07T08:05:42.365Z,99.99
2019-06-07T08:06:33.596Z,99.99
2019-06-07T08:07:33.581Z,99.99
2019-06-07T08:08:33.560Z,99.99
2019-06-07T08:09:33.550Z,99.99
2019-06-07T08:10:33.542Z,99.99
2019-06-07T08:11:33.519Z,99.99
2019-06-07T08:12:55.713Z,99.99
2019-06-07T08:13:33.646Z,99.99
2019-06-07T08:14:33.488Z,99.99
2019-06-07T08:15:33.477Z,99.99
2019-06-07T08:16:33.458Z,99.99
2019-06-07T08:17:33.448Z,99.99
2019-06-07T08:18:33.429Z,99.99
2019-06-07T08:19:33.420Z,99.99
2019-06-07T08:20:33.427Z,99.99
2019-06-07T08:21:33.389Z,99.99
2019-06-07T08:22:33.381Z,99.99
2019-06-07T08:23:33.368Z,99.99
2019-06-07T08:24:33.349Z,99.99
2019-06-07T08:25:33.335Z,99.99
2019-06-07T08:26:33.338Z,99.99
2019-06-07T08:27:33.317Z,99.99
2019-06-07T08:28:33.294Z,99.99
2019-06-07T08:29:44.900Z,99.99
2019-06-07T08:30:54.966Z,99.99
2019-06-07T08:31:33.265Z,99.99
2019-06-07T08:32:33.256Z,99.99
2019-06-07T08:33:33.243Z,99.99
2019-06-07T08:34:33.289Z,99.99
2019-06-07T08:36:41.795Z,99.99
2019-06-07T08:38:14.239Z,99.99
2019-06-07T08:38:47.063Z,99.26
2019-06-07T08:39:33.157Z,98.10
2019-06-07T08:40:33.145Z,97.81
2019-06-07T08:41:33.152Z,95.21
2019-06-07T08:42:38.563Z,95.11
2019-06-07T08:43:33.133Z,95.98
2019-06-07T08:44:33.101Z,97.91
2019-06-07T08:45:33.091Z,98.34
2019-06-07T08:46:33.112Z,98.78
2019-06-07T08:47:33.082Z,95.21
2019-06-07T08:48:33.056Z,94.73
2019-06-07T08:49:33.036Z,93.08
2019-06-07T08:50:33.028Z,92.75
2019-06-07T08:51:33.021Z,95.45
2019-06-07T08:52:33.008Z,95.98
2019-06-07T08:53:32.990Z,92.46
2019-06-07T08:54:32.979Z,94.63
2019-06-07T08:55:33.056Z,92.27
2019-06-07T08:56:32.970Z,92.94
2019-06-07T08:57:32.947Z,91.93
2019-06-07T08:58:32.933Z,89.81
2019-06-07T08:59:32.921Z,91.54
2019-06-07T09:00:48.348Z,91.54
2019-06-07T09:01:32.908Z,91.16
2019-06-07T09:02:32.897Z,91.49
2019-06-07T09:03:32.879Z,94.62
2019-06-07T09:04:32.876Z,91.49
2019-06-07T09:05:32.857Z,89.03
2019-06-07T09:07:32.838Z,91.74
2019-06-07T09:08:32.825Z,92.17
2019-06-07T09:09:32.803Z,95.98
2019-06-07T09:10:32.842Z,92.74
2019-06-07T09:11:32.822Z,93.37
2019-06-07T09:12:32.771Z,91.73
2019-06-07T09:13:33.349Z,87.87
2019-06-07T09:14:32.761Z,91.44
2019-06-07T09:15:32.741Z,95.50
2019-06-07T09:16:32.723Z,89.12
2019-06-07T09:17:34.214Z,89.55
2019-06-07T09:18:43.227Z,88.06
2019-06-07T09:19:32.684Z,88.35
2019-06-07T09:20:36.734Z,86.57
2019-06-07T09:21:32.707Z,86.22
2019-06-07T09:22:32.670Z,86.85
2019-06-07T09:23:32.642Z,87.81
2019-06-07T09:24:32.634Z,86.85
2019-06-07T09:25:32.619Z,86.32
2019-06-07T09:26:32.613Z,87.19
2019-06-07T09:27:32.594Z,88.50
2019-06-07T09:28:32.592Z,86.66
2019-06-07T09:29:32.580Z,92.16
2019-06-07T09:30:32.594Z,86.46
2019-06-07T09:31:51.157Z,89.21
2019-06-07T09:32:32.587Z,83.95
2019-06-07T09:33:32.533Z,85.45
2019-06-07T09:34:32.526Z,85.84
2019-06-07T09:35:32.517Z,88.15
2019-06-07T09:36:32.500Z,90.14
2019-06-07T09:38:04.251Z,88.68
2019-06-07T09:38:32.491Z,85.63
2019-06-07T09:39:32.481Z,84.32
2019-06-07T09:40:32.472Z,84.11
2019-06-07T09:41:46.995Z,81.98
2019-06-07T09:42:32.434Z,80.98
2019-06-07T09:44:01.951Z,83.20
2019-06-07T09:44:32.424Z,82.48
2019-06-07T09:45:32.405Z,84.95
2019-06-07T09:46:32.399Z,82.64
2019-06-07T09:47:33.251Z,83.61
2019-06-07T09:49:09.857Z,87.81
2019-06-07T09:49:33.339Z,85.00
2019-06-07T09:50:32.353Z,84.22
2019-06-07T09:51:32.355Z,83.64
2019-06-07T09:52:56.394Z,83.01
2019-06-07T09:53:32.321Z,81.81
2019-06-07T09:55:32.302Z,83.45
2019-06-07T09:56:32.287Z,85.00
2019-06-07T09:57:32.273Z,82.68
2019-06-07T09:58:51.731Z,82.23
2019-06-07T09:59:32.254Z,81.79
2019-06-07T10:00:41.030Z,80.54
2019-06-07T10:01:32.236Z,84.06
2019-06-07T10:02:32.233Z,80.67
2019-06-07T10:03:32.216Z,80.82
2019-06-07T10:04:32.224Z,80.05
2019-06-07T10:05:32.205Z,80.11
2019-06-07T10:06:32.214Z,83.59
2019-06-07T10:07:32.286Z,84.11
2019-06-07T10:11:32.152Z,78.87
2019-06-07T10:12:32.142Z,82.30
2019-06-07T10:13:32.135Z,79.45
2019-06-07T10:14:32.119Z,81.87
2019-06-07T10:15:32.119Z,88.79
2019-06-07T10:16:45.947Z,82.20
2019-06-07T10:17:32.105Z,85.69
2019-06-07T10:18:32.097Z,78.91
2019-06-07T10:19:32.089Z,80.46
2019-06-07T10:20:32.079Z,74.84
2019-06-07T10:21:32.069Z,79.68
2019-06-07T10:22:32.095Z,77.90
2019-06-07T10:23:32.062Z,81.10
2019-06-07T10:24:32.059Z,81.10
2019-06-07T10:25:32.046Z,78.87
2019-06-07T10:26:32.036Z,79.45
2019-06-07T10:27:32.038Z,78.03
2019-06-07T10:28:32.043Z,80.07
2019-06-07T10:29:32.052Z,78.71
2019-06-07T10:30:32.019Z,78.33
2019-06-07T10:31:32.015Z,77.51
2019-06-07T10:32:32.053Z,82.65
2019-06-07T10:33:32.011Z,78.87
2019-06-07T10:34:31.992Z,80.07
2019-06-07T10:35:32.055Z,79.35
2019-06-07T10:36:31.982Z,81.20
2019-06-07T10:37:31.979Z,82.65
2019-06-07T10:38:31.989Z,80.13
2019-06-07T10:39:44.956Z,78.38
2019-06-07T10:40:31.969Z,82.07
2019-06-07T10:41:31.988Z,84.24
2019-06-07T10:42:31.956Z,75.42
2019-06-07T10:43:31.945Z,76.64
2019-06-07T10:44:31.942Z,85.46
2019-06-07T10:45:31.973Z,82.01
2019-06-07T10:46:31.939Z,84.05
2019-06-07T10:47:31.936Z,77.98
2019-06-07T10:48:31.936Z,77.69
2019-06-07T10:49:31.923Z,77.49
2019-06-07T10:50:31.926Z,77.88
2019-06-07T10:51:31.919Z,77.29
2019-06-07T10:52:31.914Z,77.55
2019-06-07T10:53:31.910Z,78.77
2019-06-07T10:54:31.932Z,80.13
2019-06-07T10:55:31.901Z,81.58
2019-06-07T10:56:31.904Z,81.68
2019-06-07T10:57:31.901Z,81.04
2019-06-07T10:58:31.898Z,80.13
2019-06-07T10:59:31.891Z,82.75
2019-06-07T11:00:31.894Z,82.41
2019-06-07T11:01:31.898Z,82.37
2019-06-07T11:02:31.881Z,82.47
2019-06-07T11:03:31.888Z,82.70
2019-06-07T11:04:31.878Z,78.02
2019-06-07T11:05:31.878Z,80.77
2019-06-07T11:06:31.885Z,81.54
2019-06-07T11:07:31.869Z,84.63
2019-06-07T11:08:31.868Z,82.20
2019-06-07T11:09:33.205Z,82.24
2019-06-07T11:10:31.863Z,77.26
2019-06-07T11:11:31.866Z,81.91
2019-06-07T11:12:31.864Z,81.33
2019-06-07T11:13:31.863Z,79.10
2019-06-07T11:14:31.859Z,79.10
2019-06-07T11:15:31.859Z,83.37
2019-06-07T11:16:31.854Z,81.13
2019-06-07T11:17:31.852Z,83.17
2019-06-07T11:18:31.847Z,82.45
2019-06-07T11:19:31.850Z,83.37
2019-06-07T11:20:31.866Z,81.77
2019-06-07T11:21:31.853Z,79.55
2019-06-07T11:22:31.876Z,81.48
2019-06-07T11:23:31.847Z,85.02
2019-06-07T11:24:31.843Z,81.43
2019-06-07T11:25:31.844Z,82.98
2019-06-07T11:26:31.865Z,81.43
2019-06-07T11:27:31.847Z,79.25
2019-06-07T11:28:31.844Z,79.45
2019-06-07T11:29:31.844Z,83.81
2019-06-07T11:30:31.846Z,78.91
2019-06-07T11:31:31.846Z,85.19
2019-06-07T11:32:31.841Z,80.96
2019-06-07T11:33:31.875Z,79.96
2019-06-07T11:34:31.850Z,79.76
2019-06-07T11:35:31.847Z,79.66
2019-06-07T11:36:31.847Z,81.21
2019-06-07T11:37:31.844Z,79.86
2019-06-07T11:38:31.856Z,77.82
2019-06-07T11:39:31.866Z,78.36
2019-06-07T11:40:35.512Z,79.53
2019-06-07T11:41:31.848Z,77.16
2019-06-07T11:42:31.853Z,79.14
2019-06-07T11:43:31.857Z,79.82
2019-06-07T11:44:31.854Z,81.85
2019-06-07T11:45:31.853Z,86.46
2019-06-07T11:46:31.857Z,80.15
2019-06-07T11:47:31.860Z,77.98
2019-06-07T11:48:31.857Z,77.24
2019-06-07T11:49:31.857Z,78.40
2019-06-07T11:50:31.892Z,76.65
2019-06-07T11:51:31.872Z,78.21
2019-06-07T11:52:31.868Z,74.68
2019-06-07T11:53:31.876Z,76.27
2019-06-07T11:54:31.873Z,79.47
2019-06-07T11:55:31.886Z,77.53
2019-06-07T11:56:31.869Z,75.07
2019-06-07T11:57:31.870Z,76.52
2019-06-07T11:58:31.873Z,78.50
2019-06-07T11:59:31.877Z,76.65
2019-06-07T12:00:34.214Z,78.92
2019-06-07T12:01:31.877Z,76.89
2019-06-07T12:02:31.886Z,78.21
2019-06-07T12:03:31.891Z,76.89
2019-06-07T12:04:34.935Z,76.79
2019-06-07T12:05:31.882Z,76.98
2019-06-07T12:06:31.890Z,77.47
2019-06-07T12:07:31.888Z,76.85
2019-06-07T12:08:31.889Z,77.20
2019-06-07T12:09:31.896Z,80.93
2019-06-07T12:10:42.002Z,76.46
2019-06-07T12:11:31.892Z,77.20
2019-06-07T12:12:31.892Z,80.25
2019-06-07T12:13:31.906Z,77.43
2019-06-07T12:14:31.906Z,79.22
2019-06-07T12:15:31.906Z,76.69
2019-06-07T12:16:31.907Z,77.98
2019-06-07T12:17:31.908Z,80.11
2019-06-07T12:18:31.909Z,77.94
2019-06-07T12:19:31.908Z,79.06
2019-06-07T12:20:31.910Z,83.95
2019-06-07T12:21:31.911Z,83.23
2019-06-07T12:22:31.912Z,81.25
2019-06-07T12:23:31.909Z,82.45
2019-06-07T12:24:31.912Z,79.88
2019-06-07T12:25:31.914Z,83.27
2019-06-07T12:26:31.915Z,79.72
2019-06-07T12:27:31.912Z,77.34
2019-06-07T12:28:31.907Z,77.76
2019-06-07T12:29:33.931Z,75.34
2019-06-07T12:30:31.908Z,77.53
2019-06-07T12:31:31.906Z,74.71
2019-06-07T12:32:31.927Z,75.82
2019-06-07T12:33:31.909Z,75.14
2019-06-07T12:34:31.913Z,76.83
2019-06-07T12:35:31.919Z,76.64
2019-06-07T12:36:31.916Z,78.09
2019-06-07T12:37:43.269Z,78.91
2019-06-07T12:38:31.918Z,77.25
2019-06-07T12:39:31.970Z,74.98
2019-06-07T12:40:32.519Z,77.22
2019-06-07T12:41:31.918Z,76.15
2019-06-07T12:42:31.941Z,75.80
2019-06-07T12:43:31.915Z,77.25
2019-06-07T12:44:31.919Z,76.81
2019-06-07T12:45:44.270Z,75.25
2019-06-07T12:46:31.923Z,73.37
2019-06-07T12:47:31.924Z,72.36
2019-06-07T12:48:31.930Z,73.33
2019-06-07T12:49:31.932Z,72.27
2019-06-07T12:50:42.426Z,73.69
2019-06-07T12:51:31.934Z,77.33
2019-06-07T12:52:31.954Z,72.53
2019-06-07T12:53:31.935Z,74.32
2019-06-07T12:54:31.949Z,72.82
2019-06-07T12:55:31.944Z,74.57
2019-06-07T12:56:31.965Z,74.96
2019-06-07T12:57:31.952Z,76.81
2019-06-07T12:58:36.248Z,74.71
2019-06-07T12:59:31.949Z,72.37
2019-06-07T13:00:31.951Z,72.04